sensor_id;sensor_type;location;lat;lon;timestamp;pressure;altitude;pressure_sealevel;temperature
19644;BMP180;9970;-36.854;174.870;2023-06-04T00:01:24;101556.00;;;15.30
19644;BMP180;9970;-36.854;174.870;2023-06-04T00:03:57;101547.00;;;15.30
19644;BMP180;9970;-36.854;174.870;2023-06-04T00:06:30;101546.00;;;15.30
19644;BMP180;9970;-36.854;174.870;2023-06-04T00:09:07;101530.00;;;15.30
19644;BMP180;9970;-36.854;174.870;2023-06-04T00:11:41;101529.00;;;15.30
19644;BMP180;9970;-36.854;174.870;2023-06-04T00:14:15;101522.00;;;15.40
19644;BMP180;9970;-36.854;174.870;2023-06-04T00:16:48;101520.00;;;15.40
19644;BMP180;9970;-36.854;174.870;2023-06-04T00:19:21;101509.00;;;15.40
19644;BMP180;9970;-36.854;174.870;2023-06-04T00:21:54;101512.00;;;15.40
19644;BMP180;9970;-36.854;174.870;2023-06-04T00:24:27;101501.00;;;15.40
19644;BMP180;9970;-36.854;174.870;2023-06-04T00:27:00;101502.00;;;15.40
19644;BMP180;9970;-36.854;174.870;2023-06-04T00:29:33;101503.00;;;15.50
19644;BMP180;9970;-36.854;174.870;2023-06-04T00:32:06;101497.00;;;15.50
19644;BMP180;9970;-36.854;174.870;2023-06-04T00:34:57;101487.00;;;15.50
19644;BMP180;9970;-36.854;174.870;2023-06-04T00:37:27;101479.00;;;15.50
19644;BMP180;9970;-36.854;174.870;2023-06-04T00:40:00;101473.00;;;15.50
19644;BMP180;9970;-36.854;174.870;2023-06-04T00:42:33;101470.00;;;15.50
19644;BMP180;9970;-36.854;174.870;2023-06-04T00:45:10;101477.00;;;15.50
19644;BMP180;9970;-36.854;174.870;2023-06-04T00:47:44;101471.00;;;15.50
19644;BMP180;9970;-36.854;174.870;2023-06-04T00:50:17;101471.00;;;15.50
19644;BMP180;9970;-36.854;174.870;2023-06-04T00:52:52;101464.00;;;15.50
19644;BMP180;9970;-36.854;174.870;2023-06-04T00:55:27;101459.00;;;15.50
19644;BMP180;9970;-36.854;174.870;2023-06-04T00:58:00;101451.00;;;15.50
19644;BMP180;9970;-36.854;174.870;2023-06-04T01:00:33;101443.00;;;15.50
19644;BMP180;9970;-36.854;174.870;2023-06-04T01:03:10;101447.00;;;15.50
19644;BMP180;9970;-36.854;174.870;2023-06-04T01:05:47;101441.00;;;15.50
19644;BMP180;9970;-36.854;174.870;2023-06-04T01:08:19;101438.00;;;15.50
19644;BMP180;9970;-36.854;174.870;2023-06-04T01:10:53;101441.00;;;15.50
19644;BMP180;9970;-36.854;174.870;2023-06-04T01:13:27;101436.00;;;15.50
19644;BMP180;9970;-36.854;174.870;2023-06-04T01:16:00;101428.00;;;15.50
19644;BMP180;9970;-36.854;174.870;2023-06-04T01:18:35;101427.00;;;15.50
19644;BMP180;9970;-36.854;174.870;2023-06-04T01:21:09;101435.00;;;15.50
19644;BMP180;9970;-36.854;174.870;2023-06-04T01:23:53;101419.00;;;15.50
19644;BMP180;9970;-36.854;174.870;2023-06-04T01:26:33;101412.00;;;15.50
19644;BMP180;9970;-36.854;174.870;2023-06-04T01:29:06;101403.00;;;15.50
19644;BMP180;9970;-36.854;174.870;2023-06-04T01:31:39;101397.00;;;15.40
19644;BMP180;9970;-36.854;174.870;2023-06-04T01:34:12;101398.00;;;15.50
19644;BMP180;9970;-36.854;174.870;2023-06-04T01:36:45;101389.00;;;15.50
19644;BMP180;9970;-36.854;174.870;2023-06-04T01:39:18;101376.00;;;15.40
19644;BMP180;9970;-36.854;174.870;2023-06-04T01:41:51;101383.00;;;15.40
19644;BMP180;9970;-36.854;174.870;2023-06-04T01:44:24;101371.00;;;15.40
19644;BMP180;9970;-36.854;174.870;2023-06-04T01:46:58;101372.00;;;15.40
19644;BMP180;9970;-36.854;174.870;2023-06-04T01:49:31;101368.00;;;15.40
19644;BMP180;9970;-36.854;174.870;2023-06-04T01:52:04;101365.00;;;15.30
19644;BMP180;9970;-36.854;174.870;2023-06-04T01:54:44;101349.00;;;15.30
19644;BMP180;9970;-36.854;174.870;2023-06-04T01:57:16;101351.00;;;15.30
19644;BMP180;9970;-36.854;174.870;2023-06-04T01:59:49;101357.00;;;15.30
19644;BMP180;9970;-36.854;174.870;2023-06-04T02:02:22;101347.00;;;15.30
19644;BMP180;9970;-36.854;174.870;2023-06-04T02:04:56;101352.00;;;15.30
19644;BMP180;9970;-36.854;174.870;2023-06-04T02:07:30;101362.00;;;15.20
19644;BMP180;9970;-36.854;174.870;2023-06-04T02:10:10;101355.00;;;15.20
19644;BMP180;9970;-36.854;174.870;2023-06-04T02:12:59;101350.00;;;15.20
19644;BMP180;9970;-36.854;174.870;2023-06-04T02:15:33;101349.00;;;15.20
19644;BMP180;9970;-36.854;174.870;2023-06-04T02:18:20;101345.00;;;15.20
19644;BMP180;9970;-36.854;174.870;2023-06-04T02:20:58;101335.00;;;15.10
19644;BMP180;9970;-36.854;174.870;2023-06-04T02:23:31;101328.00;;;15.10
19644;BMP180;9970;-36.854;174.870;2023-06-04T02:26:04;101327.00;;;15.10
19644;BMP180;9970;-36.854;174.870;2023-06-04T02:28:41;101317.00;;;15.10
19644;BMP180;9970;-36.854;174.870;2023-06-04T02:31:14;101306.00;;;15.10
19644;BMP180;9970;-36.854;174.870;2023-06-04T02:33:47;101302.00;;;15.10
19644;BMP180;9970;-36.854;174.870;2023-06-04T02:36:20;101295.00;;;15.10
19644;BMP180;9970;-36.854;174.870;2023-06-04T02:38:53;101295.00;;;15.10
19644;BMP180;9970;-36.854;174.870;2023-06-04T02:41:27;101289.00;;;15.10
19644;BMP180;9970;-36.854;174.870;2023-06-04T02:44:04;101288.00;;;15.10
19644;BMP180;9970;-36.854;174.870;2023-06-04T02:46:37;101294.00;;;15.00
19644;BMP180;9970;-36.854;174.870;2023-06-04T02:49:10;101286.00;;;15.00
19644;BMP180;9970;-36.854;174.870;2023-06-04T02:51:46;101286.00;;;15.00
19644;BMP180;9970;-36.854;174.870;2023-06-04T02:54:19;101281.00;;;15.00
19644;BMP180;9970;-36.854;174.870;2023-06-04T02:56:52;101265.00;;;15.00
19644;BMP180;9970;-36.854;174.870;2023-06-04T02:59:25;101260.00;;;15.00
19644;BMP180;9970;-36.854;174.870;2023-06-04T03:01:58;101252.00;;;14.90
19644;BMP180;9970;-36.854;174.870;2023-06-04T03:04:35;101248.00;;;14.90
19644;BMP180;9970;-36.854;174.870;2023-06-04T03:07:12;101250.00;;;14.90
19644;BMP180;9970;-36.854;174.870;2023-06-04T03:09:45;101238.00;;;14.90
19644;BMP180;9970;-36.854;174.870;2023-06-04T03:12:18;101232.00;;;14.90
19644;BMP180;9970;-36.854;174.870;2023-06-04T03:14:52;101238.00;;;14.90
19644;BMP180;9970;-36.854;174.870;2023-06-04T03:17:25;101234.00;;;14.90
19644;BMP180;9970;-36.854;174.870;2023-06-04T03:19:59;101232.00;;;14.80
19644;BMP180;9970;-36.854;174.870;2023-06-04T03:22:36;101219.00;;;14.80
19644;BMP180;9970;-36.854;174.870;2023-06-04T03:25:11;101222.00;;;14.80
19644;BMP180;9970;-36.854;174.870;2023-06-04T03:27:52;101204.00;;;14.80
19644;BMP180;9970;-36.854;174.870;2023-06-04T03:30:39;101198.00;;;14.80
19644;BMP180;9970;-36.854;174.870;2023-06-04T03:33:12;101195.00;;;14.80
19644;BMP180;9970;-36.854;174.870;2023-06-04T03:35:46;101189.00;;;14.70
19644;BMP180;9970;-36.854;174.870;2023-06-04T03:38:19;101192.00;;;14.70
19644;BMP180;9970;-36.854;174.870;2023-06-04T03:40:52;101187.00;;;14.70
19644;BMP180;9970;-36.854;174.870;2023-06-04T03:43:25;101195.00;;;14.70
19644;BMP180;9970;-36.854;174.870;2023-06-04T03:45:58;101190.00;;;14.70
19644;BMP180;9970;-36.854;174.870;2023-06-04T03:48:31;101182.00;;;14.70
19644;BMP180;9970;-36.854;174.870;2023-06-04T03:51:07;101183.00;;;14.70
19644;BMP180;9970;-36.854;174.870;2023-06-04T03:53:41;101189.00;;;14.70
19644;BMP180;9970;-36.854;174.870;2023-06-04T03:56:14;101184.00;;;14.70
19644;BMP180;9970;-36.854;174.870;2023-06-04T03:58:47;101189.00;;;14.70
19644;BMP180;9970;-36.854;174.870;2023-06-04T04:01:20;101186.00;;;14.70
19644;BMP180;9970;-36.854;174.870;2023-06-04T04:03:54;101177.00;;;14.70
19644;BMP180;9970;-36.854;174.870;2023-06-04T04:06:27;101175.00;;;14.70
19644;BMP180;9970;-36.854;174.870;2023-06-04T04:09:00;101177.00;;;14.70
19644;BMP180;9970;-36.854;174.870;2023-06-04T04:11:34;101168.00;;;14.70
19644;BMP180;9970;-36.854;174.870;2023-06-04T04:14:18;101172.00;;;14.60
19644;BMP180;9970;-36.854;174.870;2023-06-04T04:16:51;101169.00;;;14.60
19644;BMP180;9970;-36.854;174.870;2023-06-04T04:19:24;101165.00;;;14.60
19644;BMP180;9970;-36.854;174.870;2023-06-04T04:21:59;101155.00;;;14.60
19644;BMP180;9970;-36.854;174.870;2023-06-04T04:24:32;101147.00;;;14.60
19644;BMP180;9970;-36.854;174.870;2023-06-04T04:27:08;101147.00;;;14.60
19644;BMP180;9970;-36.854;174.870;2023-06-04T04:29:43;101148.00;;;14.60
19644;BMP180;9970;-36.854;174.870;2023-06-04T04:32:17;101143.00;;;14.60
19644;BMP180;9970;-36.854;174.870;2023-06-04T04:34:53;101136.00;;;14.60
19644;BMP180;9970;-36.854;174.870;2023-06-04T04:37:27;101134.00;;;14.60
19644;BMP180;9970;-36.854;174.870;2023-06-04T04:39:59;101133.00;;;14.60
19644;BMP180;9970;-36.854;174.870;2023-06-04T04:42:34;101137.00;;;14.60
19644;BMP180;9970;-36.854;174.870;2023-06-04T04:45:07;101120.00;;;14.60
19644;BMP180;9970;-36.854;174.870;2023-06-04T04:47:40;101133.00;;;14.50
19644;BMP180;9970;-36.854;174.870;2023-06-04T04:50:14;101130.00;;;14.50
19644;BMP180;9970;-36.854;174.870;2023-06-04T04:52:47;101116.00;;;14.50
19644;BMP180;9970;-36.854;174.870;2023-06-04T04:55:20;101120.00;;;14.50
19644;BMP180;9970;-36.854;174.870;2023-06-04T04:57:54;101114.00;;;14.50
19644;BMP180;9970;-36.854;174.870;2023-06-04T05:00:27;101119.00;;;14.50
19644;BMP180;9970;-36.854;174.870;2023-06-04T05:03:00;101112.00;;;14.50
19644;BMP180;9970;-36.854;174.870;2023-06-04T05:05:33;101116.00;;;14.40
19644;BMP180;9970;-36.854;174.870;2023-06-04T05:08:08;101114.00;;;14.40
19644;BMP180;9970;-36.854;174.870;2023-06-04T05:10:56;101091.00;;;14.40
19644;BMP180;9970;-36.854;174.870;2023-06-04T05:13:29;101095.00;;;14.40
19644;BMP180;9970;-36.854;174.870;2023-06-04T05:16:05;101102.00;;;14.40
19644;BMP180;9970;-36.854;174.870;2023-06-04T05:18:39;101086.00;;;14.40
19644;BMP180;9970;-36.854;174.870;2023-06-04T05:21:14;101083.00;;;14.40
19644;BMP180;9970;-36.854;174.870;2023-06-04T05:23:47;101080.00;;;14.40
19644;BMP180;9970;-36.854;174.870;2023-06-04T05:26:25;101062.00;;;14.40
19644;BMP180;9970;-36.854;174.870;2023-06-04T05:28:58;101060.00;;;14.30
19644;BMP180;9970;-36.854;174.870;2023-06-04T05:31:32;101061.00;;;14.30
19644;BMP180;9970;-36.854;174.870;2023-06-04T05:34:06;101066.00;;;14.30
19644;BMP180;9970;-36.854;174.870;2023-06-04T05:36:39;101065.00;;;14.30
19644;BMP180;9970;-36.854;174.870;2023-06-04T05:39:12;101055.00;;;14.30
19644;BMP180;9970;-36.854;174.870;2023-06-04T05:41:46;101054.00;;;14.30
19644;BMP180;9970;-36.854;174.870;2023-06-04T05:44:19;101039.00;;;14.30
19644;BMP180;9970;-36.854;174.870;2023-06-04T05:46:54;101034.00;;;14.30
19644;BMP180;9970;-36.854;174.870;2023-06-04T05:49:27;101023.00;;;14.30
19644;BMP180;9970;-36.854;174.870;2023-06-04T05:52:00;101022.00;;;14.30
19644;BMP180;9970;-36.854;174.870;2023-06-04T05:54:33;101012.00;;;14.30
19644;BMP180;9970;-36.854;174.870;2023-06-04T05:57:08;101018.00;;;14.30
19644;BMP180;9970;-36.854;174.870;2023-06-04T05:59:47;101016.00;;;14.30
19644;BMP180;9970;-36.854;174.870;2023-06-04T06:02:37;101001.00;;;14.30
19644;BMP180;9970;-36.854;174.870;2023-06-04T06:05:11;100997.00;;;14.30
19644;BMP180;9970;-36.854;174.870;2023-06-04T06:07:48;100981.00;;;14.30
19644;BMP180;9970;-36.854;174.870;2023-06-04T06:10:22;100982.00;;;14.30
19644;BMP180;9970;-36.854;174.870;2023-06-04T06:12:55;100965.00;;;14.30
19644;BMP180;9970;-36.854;174.870;2023-06-04T06:15:29;100964.00;;;14.30
19644;BMP180;9970;-36.854;174.870;2023-06-04T06:18:03;100970.00;;;14.30
19644;BMP180;9970;-36.854;174.870;2023-06-04T06:20:37;100969.00;;;14.30
19644;BMP180;9970;-36.854;174.870;2023-06-04T06:23:09;100963.00;;;14.30
19644;BMP180;9970;-36.854;174.870;2023-06-04T06:25:43;100966.00;;;14.30
19644;BMP180;9970;-36.854;174.870;2023-06-04T06:28:20;100938.00;;;14.30
19644;BMP180;9970;-36.854;174.870;2023-06-04T06:30:54;100939.00;;;14.30
19644;BMP180;9970;-36.854;174.870;2023-06-04T06:33:27;100946.00;;;14.30
19644;BMP180;9970;-36.854;174.870;2023-06-04T06:36:00;100944.00;;;14.30
19644;BMP180;9970;-36.854;174.870;2023-06-04T06:38:33;100938.00;;;14.40
19644;BMP180;9970;-36.854;174.870;2023-06-04T06:41:06;100938.00;;;14.30
19644;BMP180;9970;-36.854;174.870;2023-06-04T06:43:39;100939.00;;;14.30
19644;BMP180;9970;-36.854;174.870;2023-06-04T06:46:12;100933.00;;;14.40
19644;BMP180;9970;-36.854;174.870;2023-06-04T06:48:45;100939.00;;;14.40
19644;BMP180;9970;-36.854;174.870;2023-06-04T06:51:19;100920.00;;;14.40
19644;BMP180;9970;-36.854;174.870;2023-06-04T06:53:52;100931.00;;;14.40
19644;BMP180;9970;-36.854;174.870;2023-06-04T06:56:25;100936.00;;;14.40
19644;BMP180;9970;-36.854;174.870;2023-06-04T06:58:58;100925.00;;;14.40
19644;BMP180;9970;-36.854;174.870;2023-06-04T07:01:31;100915.00;;;14.40
19644;BMP180;9970;-36.854;174.870;2023-06-04T07:04:10;100907.00;;;14.40
19644;BMP180;9970;-36.854;174.870;2023-06-04T07:06:40;100915.00;;;14.40
19644;BMP180;9970;-36.854;174.870;2023-06-04T07:09:17;100908.00;;;14.40
19644;BMP180;9970;-36.854;174.870;2023-06-04T07:11:51;100895.00;;;14.40
19644;BMP180;9970;-36.854;174.870;2023-06-04T07:14:28;100892.00;;;14.40
19644;BMP180;9970;-36.854;174.870;2023-06-04T07:17:00;100875.00;;;14.40
19644;BMP180;9970;-36.854;174.870;2023-06-04T07:19:34;100876.00;;;14.40
19644;BMP180;9970;-36.854;174.870;2023-06-04T07:22:09;100868.00;;;14.40
19644;BMP180;9970;-36.854;174.870;2023-06-04T07:24:42;100866.00;;;14.30
19644;BMP180;9970;-36.854;174.870;2023-06-04T07:27:15;100866.00;;;14.30
19644;BMP180;9970;-36.854;174.870;2023-06-04T07:29:48;100863.00;;;14.30
19644;BMP180;9970;-36.854;174.870;2023-06-04T07:32:21;100858.00;;;14.30
19644;BMP180;9970;-36.854;174.870;2023-06-04T07:34:54;100855.00;;;14.30
19644;BMP180;9970;-36.854;174.870;2023-06-04T07:37:27;100843.00;;;14.30
19644;BMP180;9970;-36.854;174.870;2023-06-04T07:40:01;100845.00;;;14.20
19644;BMP180;9970;-36.854;174.870;2023-06-04T07:42:37;100847.00;;;14.20
19644;BMP180;9970;-36.854;174.870;2023-06-04T07:45:10;100825.00;;;14.20
19644;BMP180;9970;-36.854;174.870;2023-06-04T07:47:44;100828.00;;;14.20
19644;BMP180;9970;-36.854;174.870;2023-06-04T07:50:17;100825.00;;;14.20
19644;BMP180;9970;-36.854;174.870;2023-06-04T07:52:50;100830.00;;;14.20
19644;BMP180;9970;-36.854;174.870;2023-06-04T07:55:23;100829.00;;;14.20
19644;BMP180;9970;-36.854;174.870;2023-06-04T07:57:56;100829.00;;;14.20
19644;BMP180;9970;-36.854;174.870;2023-06-04T08:00:34;100828.00;;;14.20
19644;BMP180;9970;-36.854;174.870;2023-06-04T08:03:07;100827.00;;;14.20
19644;BMP180;9970;-36.854;174.870;2023-06-04T08:05:48;100821.00;;;14.20
19644;BMP180;9970;-36.854;174.870;2023-06-04T08:08:21;100830.00;;;14.20
19644;BMP180;9970;-36.854;174.870;2023-06-04T08:10:54;100839.00;;;14.20
19644;BMP180;9970;-36.854;174.870;2023-06-04T08:13:28;100845.00;;;14.20
19644;BMP180;9970;-36.854;174.870;2023-06-04T08:16:05;100832.00;;;14.20
19644;BMP180;9970;-36.854;174.870;2023-06-04T08:18:41;100828.00;;;14.20
19644;BMP180;9970;-36.854;174.870;2023-06-04T08:21:21;100824.00;;;14.20
19644;BMP180;9970;-36.854;174.870;2023-06-04T08:23:50;100824.00;;;14.20
19644;BMP180;9970;-36.854;174.870;2023-06-04T08:26:23;100822.00;;;14.20
19644;BMP180;9970;-36.854;174.870;2023-06-04T08:28:57;100821.00;;;14.20
19644;BMP180;9970;-36.854;174.870;2023-06-04T08:31:30;100814.00;;;14.20
19644;BMP180;9970;-36.854;174.870;2023-06-04T08:34:07;100823.00;;;14.20
19644;BMP180;9970;-36.854;174.870;2023-06-04T08:36:40;100823.00;;;14.20
19644;BMP180;9970;-36.854;174.870;2023-06-04T08:39:13;100824.00;;;14.20
19644;BMP180;9970;-36.854;174.870;2023-06-04T08:41:51;100824.00;;;14.20
19644;BMP180;9970;-36.854;174.870;2023-06-04T08:44:24;100818.00;;;14.20
19644;BMP180;9970;-36.854;174.870;2023-06-04T08:47:05;100821.00;;;14.30
19644;BMP180;9970;-36.854;174.870;2023-06-04T08:49:39;100807.00;;;14.30
19644;BMP180;9970;-36.854;174.870;2023-06-04T08:52:13;100821.00;;;14.30
19644;BMP180;9970;-36.854;174.870;2023-06-04T08:54:50;100809.00;;;14.30
19644;BMP180;9970;-36.854;174.870;2023-06-04T08:57:23;100797.00;;;14.30
19644;BMP180;9970;-36.854;174.870;2023-06-04T08:59:56;100813.00;;;14.30
19644;BMP180;9970;-36.854;174.870;2023-06-04T09:02:29;100810.00;;;14.30
19644;BMP180;9970;-36.854;174.870;2023-06-04T09:05:05;100812.00;;;14.30
19644;BMP180;9970;-36.854;174.870;2023-06-04T09:07:40;100802.00;;;14.30
19644;BMP180;9970;-36.854;174.870;2023-06-04T09:10:15;100818.00;;;14.30
19644;BMP180;9970;-36.854;174.870;2023-06-04T09:12:48;100806.00;;;14.40
19644;BMP180;9970;-36.854;174.870;2023-06-04T09:15:22;100797.00;;;14.40
19644;BMP180;9970;-36.854;174.870;2023-06-04T09:17:55;100805.00;;;14.40
19644;BMP180;9970;-36.854;174.870;2023-06-04T09:20:29;100793.00;;;14.40
19644;BMP180;9970;-36.854;174.870;2023-06-04T09:23:14;100799.00;;;14.40
19644;BMP180;9970;-36.854;174.870;2023-06-04T09:25:48;100795.00;;;14.40
19644;BMP180;9970;-36.854;174.870;2023-06-04T09:28:22;100792.00;;;14.40
19644;BMP180;9970;-36.854;174.870;2023-06-04T09:30:55;100798.00;;;14.40
19644;BMP180;9970;-36.854;174.870;2023-06-04T09:33:29;100791.00;;;14.40
19644;BMP180;9970;-36.854;174.870;2023-06-04T09:36:01;100786.00;;;14.40
19644;BMP180;9970;-36.854;174.870;2023-06-04T09:38:38;100785.00;;;14.40
19644;BMP180;9970;-36.854;174.870;2023-06-04T09:41:18;100782.00;;;14.30
19644;BMP180;9970;-36.854;174.870;2023-06-04T09:44:04;100790.00;;;14.30
19644;BMP180;9970;-36.854;174.870;2023-06-04T09:46:37;100797.00;;;14.30
19644;BMP180;9970;-36.854;174.870;2023-06-04T09:49:10;100791.00;;;14.30
19644;BMP180;9970;-36.854;174.870;2023-06-04T09:51:46;100789.00;;;14.30
19644;BMP180;9970;-36.854;174.870;2023-06-04T09:54:18;100795.00;;;14.30
19644;BMP180;9970;-36.854;174.870;2023-06-04T09:56:51;100796.00;;;14.30
19644;BMP180;9970;-36.854;174.870;2023-06-04T09:59:25;100773.00;;;14.30
19644;BMP180;9970;-36.854;174.870;2023-06-04T10:01:59;100791.00;;;14.20
19644;BMP180;9970;-36.854;174.870;2023-06-04T10:04:33;100784.00;;;14.20
19644;BMP180;9970;-36.854;174.870;2023-06-04T10:07:08;100793.00;;;14.20
19644;BMP180;9970;-36.854;174.870;2023-06-04T10:09:43;100790.00;;;14.10
19644;BMP180;9970;-36.854;174.870;2023-06-04T10:12:23;100779.00;;;14.10
19644;BMP180;9970;-36.854;174.870;2023-06-04T10:15:01;100775.00;;;14.10
19644;BMP180;9970;-36.854;174.870;2023-06-04T10:17:34;100756.00;;;14.10
19644;BMP180;9970;-36.854;174.870;2023-06-04T10:20:12;100756.00;;;14.10
19644;BMP180;9970;-36.854;174.870;2023-06-04T10:22:45;100740.00;;;14.10
19644;BMP180;9970;-36.854;174.870;2023-06-04T10:25:19;100740.00;;;14.10
19644;BMP180;9970;-36.854;174.870;2023-06-04T10:27:53;100731.00;;;14.10
19644;BMP180;9970;-36.854;174.870;2023-06-04T10:30:26;100719.00;;;14.10
19644;BMP180;9970;-36.854;174.870;2023-06-04T10:32:59;100701.00;;;14.10
19644;BMP180;9970;-36.854;174.870;2023-06-04T10:35:36;100688.00;;;14.10
19644;BMP180;9970;-36.854;174.870;2023-06-04T10:38:10;100664.00;;;14.10
19644;BMP180;9970;-36.854;174.870;2023-06-04T10:40:44;100635.00;;;14.10
19644;BMP180;9970;-36.854;174.870;2023-06-04T10:43:18;100592.00;;;14.20
19644;BMP180;9970;-36.854;174.870;2023-06-04T10:45:51;100572.00;;;14.20
19644;BMP180;9970;-36.854;174.870;2023-06-04T10:48:24;100553.00;;;14.20
19644;BMP180;9970;-36.854;174.870;2023-06-04T10:51:01;100554.00;;;14.20
19644;BMP180;9970;-36.854;174.870;2023-06-04T10:53:38;100590.00;;;14.20
19644;BMP180;9970;-36.854;174.870;2023-06-04T10:56:24;100607.00;;;14.20
19644;BMP180;9970;-36.854;174.870;2023-06-04T10:58:51;100589.00;;;14.20
19644;BMP180;9970;-36.854;174.870;2023-06-04T11:01:27;100597.00;;;14.20
19644;BMP180;9970;-36.854;174.870;2023-06-04T11:04:00;100593.00;;;14.20
19644;BMP180;9970;-36.854;174.870;2023-06-04T11:06:33;100580.00;;;14.30
19644;BMP180;9970;-36.854;174.870;2023-06-04T11:09:07;100579.00;;;14.30
19644;BMP180;9970;-36.854;174.870;2023-06-04T11:11:41;100574.00;;;14.20
19644;BMP180;9970;-36.854;174.870;2023-06-04T11:14:14;100576.00;;;14.20
19644;BMP180;9970;-36.854;174.870;2023-06-04T11:16:48;100574.00;;;14.20
19644;BMP180;9970;-36.854;174.870;2023-06-04T11:19:21;100580.00;;;14.20
19644;BMP180;9970;-36.854;174.870;2023-06-04T11:21:54;100578.00;;;14.30
19644;BMP180;9970;-36.854;174.870;2023-06-04T11:24:27;100589.00;;;14.30
19644;BMP180;9970;-36.854;174.870;2023-06-04T11:27:01;100577.00;;;14.30
19644;BMP180;9970;-36.854;174.870;2023-06-04T11:29:35;100579.00;;;14.30
19644;BMP180;9970;-36.854;174.870;2023-06-04T11:32:08;100590.00;;;14.30
19644;BMP180;9970;-36.854;174.870;2023-06-04T11:34:43;100574.00;;;14.30
19644;BMP180;9970;-36.854;174.870;2023-06-04T11:37:16;100575.00;;;14.30
19644;BMP180;9970;-36.854;174.870;2023-06-04T11:39:48;100569.00;;;14.30
19644;BMP180;9970;-36.854;174.870;2023-06-04T11:42:22;100578.00;;;14.30
19644;BMP180;9970;-36.854;174.870;2023-06-04T11:44:58;100573.00;;;14.30
19644;BMP180;9970;-36.854;174.870;2023-06-04T11:47:31;100562.00;;;14.30
19644;BMP180;9970;-36.854;174.870;2023-06-04T11:50:04;100571.00;;;14.30
19644;BMP180;9970;-36.854;174.870;2023-06-04T11:52:38;100561.00;;;14.30
19644;BMP180;9970;-36.854;174.870;2023-06-04T11:55:12;100552.00;;;14.30
19644;BMP180;9970;-36.854;174.870;2023-06-04T11:57:45;100559.00;;;14.30
19644;BMP180;9970;-36.854;174.870;2023-06-04T12:00:19;100548.00;;;14.30
19644;BMP180;9970;-36.854;174.870;2023-06-04T12:02:54;100565.00;;;14.40
19644;BMP180;9970;-36.854;174.870;2023-06-04T12:05:31;100554.00;;;14.40
19644;BMP180;9970;-36.854;174.870;2023-06-04T12:08:05;100550.00;;;14.40
19644;BMP180;9970;-36.854;174.870;2023-06-04T12:10:40;100561.00;;;14.40
19644;BMP180;9970;-36.854;174.870;2023-06-04T12:13:13;100553.00;;;14.40
19644;BMP180;9970;-36.854;174.870;2023-06-04T12:15:52;100557.00;;;14.40
19644;BMP180;9970;-36.854;174.870;2023-06-04T12:18:27;100542.00;;;14.40
19644;BMP180;9970;-36.854;174.870;2023-06-04T12:21:00;100549.00;;;14.50
19644;BMP180;9970;-36.854;174.870;2023-06-04T12:23:34;100542.00;;;14.50
19644;BMP180;9970;-36.854;174.870;2023-06-04T12:26:07;100544.00;;;14.50
19644;BMP180;9970;-36.854;174.870;2023-06-04T12:28:40;100548.00;;;14.50
19644;BMP180;9970;-36.854;174.870;2023-06-04T12:31:19;100557.00;;;14.50
19644;BMP180;9970;-36.854;174.870;2023-06-04T12:33:52;100547.00;;;14.50
19644;BMP180;9970;-36.854;174.870;2023-06-04T12:36:25;100541.00;;;14.50
19644;BMP180;9970;-36.854;174.870;2023-06-04T12:39:00;100539.00;;;14.50
19644;BMP180;9970;-36.854;174.870;2023-06-04T12:41:33;100528.00;;;14.50
19644;BMP180;9970;-36.854;174.870;2023-06-04T12:44:06;100531.00;;;14.50
19644;BMP180;9970;-36.854;174.870;2023-06-04T12:46:39;100522.00;;;14.50
19644;BMP180;9970;-36.854;174.870;2023-06-04T12:49:12;100506.00;;;14.50
19644;BMP180;9970;-36.854;174.870;2023-06-04T12:51:44;100507.00;;;14.50
19644;BMP180;9970;-36.854;174.870;2023-06-04T12:54:18;100499.00;;;14.50
19644;BMP180;9970;-36.854;174.870;2023-06-04T12:56:51;100502.00;;;14.40
19644;BMP180;9970;-36.854;174.870;2023-06-04T12:59:24;100485.00;;;14.40
19644;BMP180;9970;-36.854;174.870;2023-06-04T13:01:57;100474.00;;;14.40
19644;BMP180;9970;-36.854;174.870;2023-06-04T13:04:30;100478.00;;;14.40
19644;BMP180;9970;-36.854;174.870;2023-06-04T13:07:03;100477.00;;;14.40
19644;BMP180;9970;-36.854;174.870;2023-06-04T13:09:36;100473.00;;;14.40
19644;BMP180;9970;-36.854;174.870;2023-06-04T13:12:09;100488.00;;;14.40
19644;BMP180;9970;-36.854;174.870;2023-06-04T13:14:42;100487.00;;;14.40
19644;BMP180;9970;-36.854;174.870;2023-06-04T13:17:15;100491.00;;;14.40
19644;BMP180;9970;-36.854;174.870;2023-06-04T13:19:49;100485.00;;;14.40
19644;BMP180;9970;-36.854;174.870;2023-06-04T13:22:23;100474.00;;;14.40
19644;BMP180;9970;-36.854;174.870;2023-06-04T13:24:56;100491.00;;;14.40
19644;BMP180;9970;-36.854;174.870;2023-06-04T13:27:29;100498.00;;;14.40
19644;BMP180;9970;-36.854;174.870;2023-06-04T13:30:02;100510.00;;;14.30
19644;BMP180;9970;-36.854;174.870;2023-06-04T13:32:37;100501.00;;;14.30
19644;BMP180;9970;-36.854;174.870;2023-06-04T13:35:10;100489.00;;;14.30
19644;BMP180;9970;-36.854;174.870;2023-06-04T13:37:43;100492.00;;;14.20
19644;BMP180;9970;-36.854;174.870;2023-06-04T13:40:16;100510.00;;;14.20
19644;BMP180;9970;-36.854;174.870;2023-06-04T13:42:49;100501.00;;;14.20
19644;BMP180;9970;-36.854;174.870;2023-06-04T13:45:22;100509.00;;;14.20
19644;BMP180;9970;-36.854;174.870;2023-06-04T13:47:55;100494.00;;;14.10
19644;BMP180;9970;-36.854;174.870;2023-06-04T13:50:30;100490.00;;;14.10
19644;BMP180;9970;-36.854;174.870;2023-06-04T13:53:03;100483.00;;;14.10
19644;BMP180;9970;-36.854;174.870;2023-06-04T13:55:36;100472.00;;;14.10
19644;BMP180;9970;-36.854;174.870;2023-06-04T13:58:09;100474.00;;;14.10
19644;BMP180;9970;-36.854;174.870;2023-06-04T14:00:43;100469.00;;;14.10
19644;BMP180;9970;-36.854;174.870;2023-06-04T14:03:16;100465.00;;;14.10
19644;BMP180;9970;-36.854;174.870;2023-06-04T14:05:49;100456.00;;;14.10
19644;BMP180;9970;-36.854;174.870;2023-06-04T14:08:22;100464.00;;;14.10
19644;BMP180;9970;-36.854;174.870;2023-06-04T14:10:55;100452.00;;;14.10